aviador You're here:

RKTU Decoded Metar

CHONGJU in KOREA
Report Time2017-05-29 03:00:00
UTC Time2017-05-29 04:00:24
Flight Rules vfr VFR
Wind240° at 06 kt
W.Decomp.*RWY 24: 5.9 kt HW 0.8 kt RCW
W.Rank240° ranks 1
Current wind is above 240° avg. (5.3)
Visibility9999 m
Phenomena:Sand
Clouds:N/A
Expected CloudBase > 5,200 ft AGL from Temp-Dew spread
CeilingNone
Temp27°C (ISA +12)
Dew Point14°C (45% RH)
Heat Index27.1°C
AAT26.1°C
QNH1012 hPa
Density Alt1,900 ft
Elevation217 ft
Report Wrong Elevation
Raw Report
METAR RKTU 290300Z 24006KT CAVOK 27/14 Q1012 NOSIG=####018000080####
SACN82 CWAO 290315
MGB SA 0315 AUTO8 M M M 110/16/13/0000/M/ 2006 26MM=

Extra information for RKTU:More info

Metar Taf Metar & Taf Last 4 Metars F.Rules Stats Wind Profile Meteogram Temp Stats Airport Information Weather charts Add Link Nearby VenuesMetar ALERT Operation Metar Decoded Social comments